Time;durP1;ratioP1;P1;durP2;ratioP2;P2;SDS_P1;SDS_P2;PMS_P1;PMS_P2;Temp;Humidity;BMP_temperature;BMP_pressure;BME280_temperature;BME280_humidity;BME280_pressure;Samples;Min_cycle;Max_cycle;Signal;HPM_P1;HPM_P2
2023/08/31 00:02:21;;;;;;;2.88;1.20;;;;;;;25.37;49.84;100393.44;5045247;28;20037;-57
2023/08/31 00:04:52;;;;;;;3.30;1.25;;;;;;;25.39;49.79;100396.78;5037404;28;20045;-57
2023/08/31 00:07:21;;;;;;;2.35;0.88;;;;;;;25.40;49.71;100397.63;5037785;28;20491;-56
2023/08/31 00:09:49;;;;;;;3.10;1.20;;;;;;;25.39;49.38;100398.66;5045506;28;20045;-56
2023/08/31 00:12:17;;;;;;;2.50;1.05;;;;;;;25.39;49.27;100387.81;5045791;28;20052;-56
2023/08/31 00:14:44;;;;;;;1.75;0.90;;;;;;;25.39;49.27;100394.06;5037519;28;20068;-57
2023/08/31 00:17:11;;;;;;;2.35;1.00;;;;;;;25.40;49.18;100397.63;5049042;28;20056;-57
2023/08/31 00:19:38;;;;;;;2.03;0.80;;;;;;;25.41;49.19;100399.34;5041673;28;20049;-56
2023/08/31 00:22:06;;;;;;;1.73;0.68;;;;;;;25.41;48.97;100404.75;5041320;28;20480;-57
2023/08/31 00:24:36;;;;;;;2.38;0.77;;;;;;;25.41;49.11;100404.75;5049102;28;20056;-57
2023/08/31 00:27:06;;;;;;;1.88;0.60;;;;;;;25.41;49.00;100410.16;5037907;28;20049;-56
2023/08/31 00:29:34;;;;;;;2.38;0.68;;;;;;;25.41;48.79;100407.47;5045115;28;20491;-52
2023/08/31 00:32:01;;;;;;;2.10;1.00;;;;;;;25.41;48.93;100412.88;5046122;28;20496;-52
2023/08/31 00:34:28;;;;;;;2.28;0.90;;;;;;;25.43;48.92;100412.69;5036779;28;20050;-52
2023/08/31 00:36:56;;;;;;;2.00;0.80;;;;;;;25.42;48.79;100419.13;5048227;28;20068;-52
2023/08/31 00:39:23;;;;;;;1.95;1.00;;;;;;;25.42;48.63;100411.84;5042348;28;20045;-56
2023/08/31 00:41:52;;;;;;;1.67;0.70;;;;;;;25.42;48.79;100419.13;5047271;28;20498;-56
2023/08/31 00:44:20;;;;;;;2.15;0.80;;;;;;;25.43;48.73;100423.53;5036897;28;20384;-56
2023/08/31 00:46:48;;;;;;;2.10;0.52;;;;;;;25.43;48.49;100421.66;5047967;28;20072;-56
2023/08/31 00:49:15;;;;;;;1.35;0.75;;;;;;;25.44;48.47;100419.78;5043617;28;20056;-52
2023/08/31 00:51:48;;;;;;;2.35;0.63;;;;;;;25.44;48.38;100422.50;5042865;28;20076;-53
2023/08/31 00:54:17;;;;;;;2.28;0.85;;;;;;;25.43;48.35;100418.94;5053128;28;20049;-50
2023/08/31 00:56:45;;;;;;;1.77;0.80;;;;;;;25.43;48.34;100413.53;5041966;28;20056;-53
2023/08/31 00:59:14;;;;;;;1.67;0.80;;;;;;;25.44;48.17;100425.19;5046368;28;20053;-56
2023/08/31 01:01:51;;;;;;;1.63;0.68;;;;;;;25.45;48.31;100421.50;5051325;28;20063;-56
2023/08/31 01:04:27;;;;;;;2.90;0.90;;;;;;;25.45;48.15;100424.19;5041185;28;20041;-57
2023/08/31 01:07:09;;;;;;;2.15;0.70;;;;;;;25.45;48.02;100429.63;5047416;28;20049;-56
2023/08/31 01:09:43;;;;;;;3.50;0.77;;;;;;;25.44;48.06;100426.03;5050674;28;20057;-54
2023/08/31 01:12:29;;;;;;;1.38;0.60;;;;;;;25.44;48.03;100427.91;5039612;28;20056;-54
2023/08/31 01:15:13;;;;;;;1.98;0.60;;;;;;;25.44;47.86;100434.16;5046809;28;20049;-52
2023/08/31 01:17:46;;;;;;;2.33;0.90;;;;;;;25.44;47.86;100433.34;5052567;28;20049;-53
2023/08/31 01:20:19;;;;;;;1.02;0.40;;;;;;;25.44;48.02;100434.16;5040476;28;20060;-53
2023/08/31 01:22:55;;;;;;;1.42;0.50;;;;;;;25.45;48.05;100433.16;5046912;28;20068;-53
2023/08/31 01:25:23;;;;;;;1.80;0.80;;;;;;;25.45;47.84;100437.75;5050634;28;20054;-52
2023/08/31 01:27:51;;;;;;;1.75;0.80;;;;;;;25.45;48.00;100433.16;5038242;28;20052;-56
2023/08/31 01:30:18;;;;;;;1.75;0.80;;;;;;;25.45;48.13;100435.88;5043520;28;20056;-57
2023/08/31 01:32:47;;;;;;;2.63;0.98;;;;;;;25.47;48.38;100436.53;5044340;28;20075;-56
2023/08/31 01:35:17;;;;;;;2.50;1.08;;;;;;;25.47;48.22;100441.09;5051802;28;20479;-56
2023/08/31 01:37:56;;;;;;;2.25;0.75;;;;;;;25.48;48.39;100443.66;5040462;28;20060;-54
2023/08/31 01:40:32;;;;;;;2.35;0.70;;;;;;;25.47;48.46;100441.94;5045910;28;20423;-53
2023/08/31 01:43:04;;;;;;;1.83;0.77;;;;;;;25.48;48.56;100440.94;5049992;28;20487;-52
2023/08/31 01:45:35;;;;;;;1.50;0.70;;;;;;;25.49;48.38;100449.91;5039675;28;20508;-52
2023/08/31 01:48:05;;;;;;;2.05;0.60;;;;;;;25.49;48.67;100444.50;5047284;28;20053;-52
2023/08/31 01:50:32;;;;;;;2.10;0.90;;;;;;;25.49;48.31;100444.50;5047688;28;20041;-53
2023/08/31 01:52:59;;;;;;;2.63;0.70;;;;;;;25.49;48.55;100441.78;5038368;28;20049;-54
2023/08/31 01:55:27;;;;;;;2.70;0.75;;;;;;;25.49;48.52;100442.63;5050003;28;20064;-50
2023/08/31 01:57:55;;;;;;;1.80;0.50;;;;;;;25.50;48.64;100448.88;5044559;28;20420;-53
2023/08/31 02:00:26;;;;;;;2.13;0.70;;;;;;;25.50;48.52;100457.84;5046491;28;20407;-51
2023/08/31 02:02:55;;;;;;;1.75;0.60;;;;;;;25.51;48.57;100458.69;5038722;28;20488;-54
2023/08/31 02:05:23;;;;;;;2.45;0.80;;;;;;;25.52;48.73;100461.25;5051555;28;20045;-54
2023/08/31 02:07:53;;;;;;;2.05;0.93;;;;;;;25.52;48.40;100460.38;5044333;28;20081;-54
2023/08/31 02:10:20;;;;;;;2.45;0.73;;;;;;;25.52;48.55;100466.66;5041350;28;20053;-54
2023/08/31 02:12:47;;;;;;;2.00;0.88;;;;;;;25.52;48.63;100472.09;5050019;28;20507;-54
2023/08/31 02:15:15;;;;;;;2.83;0.85;;;;;;;25.52;48.63;100477.50;5035436;28;20049;-54
2023/08/31 02:17:43;;;;;;;2.25;0.60;;;;;;;25.51;48.56;100481.22;5035581;28;20053;-56
2023/08/31 02:20:11;;;;;;;1.85;0.70;;;;;;;25.51;48.63;100477.66;5036009;28;20064;-56
2023/08/31 02:22:38;;;;;;;1.58;0.68;;;;;;;25.52;48.46;100487.47;5047615;28;20060;-56
2023/08/31 02:25:06;;;;;;;2.17;1.13;;;;;;;25.51;48.56;100474.97;5033499;28;20056;-56
2023/08/31 02:27:34;;;;;;;2.10;0.90;;;;;;;25.51;48.70;100489.34;5035556;28;20045;-51
2023/08/31 02:30:04;;;;;;;1.40;0.75;;;;;;;25.50;48.66;100495.81;5033995;28;20419;-54
2023/08/31 02:32:34;;;;;;;2.97;1.10;;;;;;;25.51;48.75;100499.34;5033449;28;20049;-53
2023/08/31 02:35:02;;;;;;;2.30;0.75;;;;;;;25.50;48.55;100493.09;5039887;28;20040;-53
2023/08/31 02:37:30;;;;;;;1.35;0.60;;;;;;;25.50;48.54;100498.50;5045252;28;20388;-53
2023/08/31 02:39:57;;;;;;;4.20;1.13;;;;;;;25.51;48.63;100504.78;5049061;28;20052;-54
2023/08/31 02:42:24;;;;;;;1.50;0.70;;;;;;;25.50;48.62;100512.06;5038683;28;20052;-54
2023/08/31 02:44:53;;;;;;;2.67;1.00;;;;;;;25.50;48.67;100513.94;5049594;28;20037;-52
2023/08/31 02:47:21;;;;;;;2.20;0.80;;;;;;;25.49;48.48;100512.25;5043273;28;20055;-53
2023/08/31 02:49:48;;;;;;;1.70;0.82;;;;;;;25.49;48.58;100509.53;5041545;28;20476;-56
2023/08/31 02:52:16;;;;;;;1.85;0.70;;;;;;;25.49;48.52;100507.66;5050496;28;20064;-56
2023/08/31 02:54:43;;;;;;;2.88;0.85;;;;;;;25.48;48.33;100508.69;5040276;28;20037;-56
2023/08/31 02:57:10;;;;;;;2.60;0.98;;;;;;;25.49;48.24;100498.69;5043280;28;20057;-56
2023/08/31 02:59:38;;;;;;;2.25;0.63;;;;;;;25.49;48.36;100506.84;5047514;28;20048;-53
2023/08/31 03:02:05;;;;;;;3.75;1.00;;;;;;;25.48;48.34;100514.13;5037659;28;20057;-53
2023/08/31 03:04:32;;;;;;;1.55;0.82;;;;;;;25.49;48.43;100509.53;5048766;28;20046;-51
2023/08/31 03:07:00;;;;;;;1.52;0.50;;;;;;;25.49;48.39;100513.09;5044277;28;20048;-53
2023/08/31 03:09:27;;;;;;;1.67;0.75;;;;;;;25.49;48.60;100506.84;5039330;28;20061;-56
2023/08/31 03:11:55;;;;;;;2.28;0.60;;;;;;;25.48;48.59;100514.13;5042114;28;20056;-56
2023/08/31 03:14:23;;;;;;;1.98;0.90;;;;;;;25.49;48.53;100514.97;5047142;28;20049;-56
2023/08/31 03:16:50;;;;;;;1.70;0.75;;;;;;;25.49;48.52;100520.38;5043017;28;20048;-56
2023/08/31 03:19:18;;;;;;;1.92;0.85;;;;;;;25.48;48.49;100514.13;5040425;28;20045;-54
2023/08/31 03:21:45;;;;;;;2.00;0.85;;;;;;;25.49;48.58;100523.09;5048926;28;20045;-53
2023/08/31 03:24:12;;;;;;;1.58;0.60;;;;;;;25.48;48.58;100524.97;5040087;28;20041;-53
2023/08/31 03:26:40;;;;;;;2.35;0.93;;;;;;;25.48;48.40;100518.69;5044242;28;20053;-52
2023/08/31 03:29:08;;;;;;;2.90;0.90;;;;;;;25.48;48.72;100524.97;5047903;28;20040;-54
2023/08/31 03:31:35;;;;;;;3.30;0.98;;;;;;;25.48;48.58;100533.09;5037570;28;20049;-52
2023/08/31 03:34:03;;;;;;;1.40;0.70;;;;;;;25.48;48.53;100534.94;5047311;28;20049;-53
2023/08/31 03:36:31;;;;;;;2.15;0.60;;;;;;;25.48;48.50;100545.78;5042608;28;20053;-52
2023/08/31 03:38:58;;;;;;;1.73;0.60;;;;;;;25.48;48.50;100538.50;5039904;28;20053;-52
2023/08/31 03:41:25;;;;;;;3.63;1.30;;;;;;;25.48;48.75;100538.50;5047681;28;20057;-53
2023/08/31 03:43:53;;;;;;;1.30;0.57;;;;;;;25.48;48.58;100541.22;5038544;28;20510;-53
2023/08/31 03:46:22;;;;;;;1.85;0.55;;;;;;;25.48;48.62;100543.94;5041479;28;20062;-53
2023/08/31 03:48:50;;;;;;;1.05;0.50;;;;;;;25.47;48.57;100539.50;5045880;28;20053;-56
2023/08/31 03:51:17;;;;;;;2.95;0.90;;;;;;;25.47;48.56;100542.22;5035529;28;20065;-56
2023/08/31 03:53:45;;;;;;;1.58;0.60;;;;;;;25.48;48.74;100546.66;5045326;28;20053;-56
2023/08/31 03:56:12;;;;;;;1.60;0.70;;;;;;;25.48;48.69;100543.94;5042735;28;20053;-56
2023/08/31 03:58:41;;;;;;;1.75;0.80;;;;;;;25.48;48.50;100543.94;5037416;28;20058;-53
2023/08/31 04:01:10;;;;;;;3.03;1.15;;;;;;;25.47;48.65;100544.09;5048870;28;20526;-54
2023/08/31 04:03:38;;;;;;;1.30;0.60;;;;;;;25.47;48.48;100544.94;5038061;28;20053;-54
2023/08/31 04:06:05;;;;;;;2.05;1.00;;;;;;;25.47;48.66;100553.06;5040931;28;20056;-53
2023/08/31 04:08:33;;;;;;;2.00;0.75;;;;;;;25.48;48.65;100562.91;5047249;28;20479;-53
2023/08/31 04:11:03;;;;;;;1.52;0.80;;;;;;;25.47;48.63;100563.91;5034650;28;20060;-52
2023/08/31 04:13:30;;;;;;;2.83;0.80;;;;;;;25.48;48.73;100568.34;5045939;28;20045;-52
2023/08/31 04:15:58;;;;;;;2.28;0.90;;;;;;;25.46;48.52;100567.66;5041793;28;20056;-54
2023/08/31 04:18:25;;;;;;;2.83;0.80;;;;;;;25.47;48.65;100569.34;5038108;28;20064;-53
2023/08/31 04:20:54;;;;;;;1.75;0.70;;;;;;;25.47;48.57;100577.47;5047464;28;20079;-50
2023/08/31 04:23:22;;;;;;;1.67;0.70;;;;;;;25.47;48.60;100585.59;5038261;28;20052;-53
2023/08/31 04:25:51;;;;;;;1.80;0.60;;;;;;;25.47;48.56;100585.59;5042255;28;20060;-52
2023/08/31 04:28:19;;;;;;;1.50;0.70;;;;;;;25.48;48.76;100594.56;5037510;28;20056;-56
2023/08/31 04:30:46;;;;;;;2.00;0.73;;;;;;;25.46;48.57;100592.03;5048168;28;20053;-56
2023/08/31 04:33:13;;;;;;;1.52;0.70;;;;;;;25.47;48.52;100592.88;5039571;28;20049;-56
2023/08/31 04:35:42;;;;;;;2.13;0.80;;;;;;;25.45;48.49;100584.09;5041148;28;20092;-57
2023/08/31 04:38:09;;;;;;;2.35;1.00;;;;;;;25.46;48.60;100592.03;5005728;28;1232321;-51
2023/08/31 04:40:36;;;;;;;2.83;0.80;;;;;;;25.46;48.42;100592.03;5036838;28;20411;-52
2023/08/31 04:43:04;;;;;;;1.92;0.90;;;;;;;25.47;48.19;100598.31;5046060;28;20050;-53
2023/08/31 04:45:31;;;;;;;3.22;1.00;;;;;;;25.46;48.38;100597.47;5044434;28;20056;-55
2023/08/31 04:47:59;;;;;;;2.90;0.98;;;;;;;25.46;48.37;100599.34;5037581;28;20053;-56
2023/08/31 04:50:26;;;;;;;1.65;0.80;;;;;;;25.45;48.18;100606.63;5036703;28;20415;-56
2023/08/31 04:52:53;;;;;;;1.88;0.77;;;;;;;25.44;48.06;100610.34;5045679;28;20159;-56
2023/08/31 04:55:22;;;;;;;2.60;1.10;;;;;;;25.46;47.76;100612.88;5043943;28;20044;-56
2023/08/31 04:57:49;;;;;;;3.42;1.00;;;;;;;25.45;47.85;100613.91;5037443;28;20097;-51
2023/08/31 05:00:17;;;;;;;2.38;0.98;;;;;;;25.44;47.78;100606.78;5036497;28;20045;-53
2023/08/31 05:02:44;;;;;;;3.10;1.10;;;;;;;25.43;47.57;100614.06;5045289;28;20045;-53
2023/08/31 05:05:13;;;;;;;3.47;1.10;;;;;;;25.44;47.60;100614.91;5044498;28;20037;-51
2023/08/31 05:07:40;;;;;;;3.20;1.23;;;;;;;25.44;47.63;100623.03;5037144;28;20488;-56
2023/08/31 05:10:08;;;;;;;2.85;1.20;;;;;;;25.44;47.56;100628.47;5036654;28;20053;-56
2023/08/31 05:12:35;;;;;;;2.63;1.13;;;;;;;25.43;47.59;100633.03;5044916;28;20049;-56
2023/08/31 05:15:03;;;;;;;1.75;1.00;;;;;;;25.43;47.54;100629.50;5044209;28;20395;-56
2023/08/31 05:17:31;;;;;;;2.38;1.02;;;;;;;25.43;47.32;100637.63;5037280;28;20407;-53
2023/08/31 05:19:58;;;;;;;1.40;0.70;;;;;;;25.43;47.23;100638.47;5048397;28;20399;-53
2023/08/31 05:22:26;;;;;;;2.58;1.02;;;;;;;25.41;47.41;100643.22;5040124;28;20045;-52
2023/08/31 05:24:53;;;;;;;3.55;0.85;;;;;;;25.43;47.39;100657.44;5040971;28;20137;-56
2023/08/31 05:27:20;;;;;;;2.95;0.82;;;;;;;25.43;47.30;100657.44;5048390;28;20052;-57
2023/08/31 05:29:49;;;;;;;2.28;1.00;;;;;;;25.43;47.17;100656.59;5036805;28;20056;-56
2023/08/31 05:32:16;;;;;;;3.25;1.30;;;;;;;25.43;47.16;100662.84;5045650;28;20480;-57
2023/08/31 05:34:44;;;;;;;2.80;0.98;;;;;;;25.43;47.17;100659.31;5045313;28;20044;-56
2023/08/31 05:37:27;;;;;;;2.00;1.00;;;;;;;25.42;47.20;100666.59;5039429;28;20058;-56
2023/08/31 05:39:54;;;;;;;2.95;1.20;;;;;;;25.42;47.00;100663.88;5050735;28;20045;-57
2023/08/31 05:42:21;;;;;;;2.83;1.00;;;;;;;25.42;46.99;100654.91;5040289;28;20060;-56
2023/08/31 05:44:49;;;;;;;2.58;1.00;;;;;;;25.42;47.14;100672.00;5049812;28;20044;-56
2023/08/31 05:47:16;;;;;;;2.17;0.90;;;;;;;25.43;47.04;100672.84;5039445;28;20045;-56
2023/08/31 05:49:43;;;;;;;5.47;0.90;;;;;;;25.42;46.84;100680.16;5050265;28;20045;-56
2023/08/31 05:52:11;;;;;;;3.05;0.93;;;;;;;25.43;46.98;100681.81;5045513;28;20388;-56
2023/08/31 05:54:38;;;;;;;2.25;1.08;;;;;;;25.43;46.93;100683.69;5042357;28;20044;-56
2023/08/31 05:57:05;;;;;;;1.90;1.00;;;;;;;25.43;47.07;100684.53;5051992;28;20045;-56
2023/08/31 05:59:33;;;;;;;2.60;0.90;;;;;;;25.42;47.23;100688.28;5041644;28;20404;-52
2023/08/31 06:02:00;;;;;;;2.10;1.00;;;;;;;25.43;47.00;100684.53;5046210;28;20056;-56
2023/08/31 06:04:28;;;;;;;3.78;0.90;;;;;;;25.43;47.08;100678.28;5049224;28;20052;-56
2023/08/31 06:06:55;;;;;;;2.97;1.15;;;;;;;25.43;47.12;100687.25;5039208;28;20483;-56
2023/08/31 06:09:22;;;;;;;1.73;0.98;;;;;;;25.42;47.18;100690.97;5050533;28;20041;-56
2023/08/31 06:11:50;;;;;;;1.80;1.02;;;;;;;25.44;47.22;100698.94;5044971;28;20415;-56
2023/08/31 06:14:17;;;;;;;2.30;0.90;;;;;;;25.43;47.38;100689.97;5042335;28;20068;-56
2023/08/31 06:16:44;;;;;;;1.45;0.77;;;;;;;25.43;47.57;100698.09;5051383;28;20044;-56
2023/08/31 06:19:15;;;;;;;2.55;0.93;;;;;;;25.44;47.57;100701.63;5040995;28;20398;-54
2023/08/31 06:21:42;;;;;;;2.15;0.93;;;;;;;25.46;47.71;100705.03;5045618;28;20053;-52
2023/08/31 06:24:12;;;;;;;2.00;0.65;;;;;;;25.43;47.93;100706.22;5049217;28;20048;-53
2023/08/31 06:26:40;;;;;;;2.15;1.05;;;;;;;25.45;48.00;100704.19;5039468;28;20049;-53
2023/08/31 06:29:10;;;;;;;2.85;0.98;;;;;;;25.46;48.09;100714.00;5048880;28;20400;-53
2023/08/31 06:31:37;;;;;;;2.85;1.15;;;;;;;25.46;48.00;100705.88;5045911;28;20071;-52
2023/08/31 06:34:05;;;;;;;2.03;1.02;;;;;;;25.47;48.04;100717.56;5040787;28;20396;-53
2023/08/31 06:36:32;;;;;;;2.00;1.00;;;;;;;25.48;48.30;100719.25;5050995;28;20049;-53
2023/08/31 06:39:00;;;;;;;2.13;0.95;;;;;;;25.47;48.08;100721.09;5041786;28;20045;-56
2023/08/31 06:41:27;;;;;;;2.08;0.93;;;;;;;25.48;48.11;100733.66;5044456;28;20046;-56
2023/08/31 06:43:54;;;;;;;2.67;1.10;;;;;;;25.48;48.20;100733.66;5049516;28;20056;-56
2023/08/31 06:46:22;;;;;;;1.75;0.80;;;;;;;25.49;48.21;100735.34;5036154;28;20056;-56
2023/08/31 06:48:52;;;;;;;1.75;1.00;;;;;;;25.50;48.34;100737.03;5048214;28;20045;-53
2023/08/31 06:51:20;;;;;;;2.40;0.98;;;;;;;25.49;48.34;100735.34;5045537;28;20045;-51
2023/08/31 06:53:51;;;;;;;2.70;1.00;;;;;;;25.50;48.35;100736.19;5038339;28;20056;-53
2023/08/31 06:56:18;;;;;;;2.45;1.13;;;;;;;25.50;48.43;100753.28;5051681;28;20046;-52
2023/08/31 06:58:46;;;;;;;1.70;0.85;;;;;;;25.50;48.37;100755.16;5047409;28;20045;-51
2023/08/31 07:01:13;;;;;;;2.03;0.82;;;;;;;25.51;48.47;100757.69;5045815;28;20044;-53
2023/08/31 07:03:40;;;;;;;2.80;1.27;;;;;;;25.51;48.54;100756.84;5039063;28;20056;-54
2023/08/31 07:06:08;;;;;;;2.13;1.02;;;;;;;25.50;48.60;100761.44;5050518;28;20045;-52
2023/08/31 07:08:37;;;;;;;2.47;1.30;;;;;;;25.52;48.63;100758.53;5041544;28;20407;-55
2023/08/31 07:11:04;;;;;;;2.25;1.10;;;;;;;25.51;48.65;100768.53;5043059;28;20056;-57
2023/08/31 07:13:31;;;;;;;2.13;1.00;;;;;;;25.52;48.78;100769.38;5049826;28;20056;-56
2023/08/31 07:15:59;;;;;;;2.50;0.93;;;;;;;25.51;48.65;100776.66;5034636;28;20034;-56
2023/08/31 07:18:27;;;;;;;2.13;0.90;;;;;;;25.51;48.56;100776.66;5034217;28;20514;-52
2023/08/31 07:20:54;;;;;;;3.65;1.10;;;;;;;25.51;48.76;100784.78;5034511;28;20045;-52
2023/08/31 07:23:22;;;;;;;2.03;0.90;;;;;;;25.52;48.75;100786.50;5033681;28;20052;-59
2023/08/31 07:25:49;;;;;;;2.38;0.90;;;;;;;25.51;48.60;100790.22;5033896;28;20487;-61
2023/08/31 07:28:17;;;;;;;3.40;1.13;;;;;;;25.51;48.63;100790.22;5041381;28;20049;-55
2023/08/31 07:30:45;;;;;;;4.93;0.85;;;;;;;25.49;48.65;100792.28;5047051;28;20059;-56
2023/08/31 07:33:12;;;;;;;3.47;1.17;;;;;;;25.44;48.40;100801.91;5037974;28;20049;-56
2023/08/31 07:35:58;;;;;;;2.33;1.10;;;;;;;25.39;48.28;100802.44;5039030;28;20056;-56
2023/08/31 07:38:27;;;;;;;2.35;1.10;;;;;;;25.35;48.13;100801.09;5043390;28;20518;-60
2023/08/31 07:40:55;;;;;;;3.05;1.13;;;;;;;25.32;48.21;100812.28;5047719;28;20052;-60
2023/08/31 07:43:22;;;;;;;3.03;1.20;;;;;;;25.28;48.25;100808.22;5036844;28;20492;-60
2023/08/31 07:45:50;;;;;;;2.08;1.00;;;;;;;25.24;47.99;100821.28;5046969;28;20052;-60
2023/08/31 07:48:17;;;;;;;2.58;1.25;;;;;;;25.19;48.41;100815.50;5043428;28;20049;-56
2023/08/31 07:50:45;;;;;;;3.20;1.25;;;;;;;25.14;48.48;100817.91;5038805;28;20045;-56
2023/08/31 07:53:12;;;;;;;3.55;1.10;;;;;;;25.08;48.51;100822.09;5049126;28;20057;-56
2023/08/31 07:55:40;;;;;;;2.92;1.40;;;;;;;25.02;48.77;100835.47;5039570;28;20392;-56
2023/08/31 07:58:08;;;;;;;2.13;1.17;;;;;;;24.91;49.12;100826.69;5042495;28;20048;-56
2023/08/31 08:00:35;;;;;;;3.40;1.40;;;;;;;24.84;49.02;100833.78;5047596;28;20045;-56
2023/08/31 08:03:03;;;;;;;3.17;1.67;;;;;;;24.83;49.24;100831.22;5036675;28;20052;-56
2023/08/31 08:05:31;;;;;;;3.38;1.40;;;;;;;24.84;49.36;100839.19;5046189;28;20047;-56
2023/08/31 08:07:58;;;;;;;3.70;1.40;;;;;;;24.85;49.66;100840.03;5042586;28;20049;-59
2023/08/31 08:10:26;;;;;;;4.97;1.38;;;;;;;24.86;49.55;100839.84;5033654;28;20045;-60
2023/08/31 08:12:55;;;;;;;4.60;1.20;;;;;;;24.84;49.63;100833.78;5035761;28;20053;-60
2023/08/31 08:15:23;;;;;;;3.08;1.20;;;;;;;24.80;49.26;100850.53;5052182;28;20072;-60
2023/08/31 08:17:50;;;;;;;3.00;1.52;;;;;;;24.77;49.18;100853.56;5042010;28;20054;-56
2023/08/31 08:20:18;;;;;;;2.83;1.10;;;;;;;24.71;49.17;100856.94;5046266;28;20049;-56
2023/08/31 08:22:47;;;;;;;3.38;1.33;;;;;;;24.64;48.90;100857.59;5036395;28;20415;-55
2023/08/31 08:25:14;;;;;;;2.25;1.00;;;;;;;24.64;48.93;100863.03;5045424;28;20056;-56
2023/08/31 08:27:42;;;;;;;3.00;1.00;;;;;;;24.66;48.90;100863.69;5043643;28;20045;-59
2023/08/31 08:30:09;;;;;;;2.17;1.08;;;;;;;24.73;48.91;100865.75;5037658;28;20050;-60
2023/08/31 08:32:37;;;;;;;2.28;1.13;;;;;;;24.76;49.23;100862.72;5048862;28;20051;-60
2023/08/31 08:35:05;;;;;;;2.80;1.33;;;;;;;24.78;48.91;100866.09;5039342;28;20491;-60
2023/08/31 08:37:35;;;;;;;3.03;1.40;;;;;;;24.78;48.79;100866.09;5041289;28;20539;-56
2023/08/31 08:40:05;;;;;;;3.70;0.98;;;;;;;24.71;48.90;100865.91;5048063;28;20052;-56
2023/08/31 08:42:41;;;;;;;4.45;1.42;;;;;;;24.65;48.67;100864.72;5036584;28;20053;-56
2023/08/31 08:45:19;;;;;;;3.28;1.05;;;;;;;24.64;48.55;100873.00;5052083;28;20056;-56
2023/08/31 08:47:47;;;;;;;2.63;1.20;;;;;;;24.62;48.78;100872.31;5038559;28;20139;-56
2023/08/31 08:50:15;;;;;;;3.05;1.27;;;;;;;24.60;49.00;100871.66;5048778;28;20053;-56
2023/08/31 08:52:44;;;;;;;3.75;1.52;;;;;;;24.58;48.83;100868.25;5038850;28;20418;-56
2023/08/31 08:55:11;;;;;;;3.65;1.13;;;;;;;24.56;48.78;100876.53;5042201;28;20045;-56
2023/08/31 08:57:39;;;;;;;2.47;1.27;;;;;;;24.55;48.69;100874.84;5047197;28;20041;-56
2023/08/31 09:00:07;;;;;;;2.83;1.20;;;;;;;24.56;48.93;100879.25;5035755;28;20057;-56
2023/08/31 09:02:34;;;;;;;2.83;1.23;;;;;;;24.61;48.95;100878.75;5046078;28;20045;-56
2023/08/31 09:05:02;;;;;;;2.88;1.20;;;;;;;24.62;48.90;100881.28;5042607;28;20060;-56
2023/08/31 09:07:38;;;;;;;3.15;1.50;;;;;;;24.65;48.80;100880.09;5037702;28;20048;-56
2023/08/31 09:10:06;;;;;;;4.20;1.25;;;;;;;24.69;48.92;100880.63;5038123;28;20049;-56
2023/08/31 09:12:36;;;;;;;1.95;0.80;;;;;;;24.72;48.78;100878.44;5048679;28;20057;-56
2023/08/31 09:15:04;;;;;;;2.33;1.10;;;;;;;24.78;48.85;100882.31;5048295;28;20044;-56
2023/08/31 09:17:44;;;;;;;3.28;1.33;;;;;;;24.81;49.08;100879.28;5040383;28;20052;-57
2023/08/31 09:20:12;;;;;;;2.22;1.25;;;;;;;24.80;48.89;100883.03;5041948;28;20045;-59
2023/08/31 09:22:44;;;;;;;3.97;1.38;;;;;;;24.81;49.13;100887.41;5045916;28;20045;-59
2023/08/31 09:25:12;;;;;;;4.83;1.23;;;;;;;24.83;48.76;100890.78;5050479;28;20056;-59
2023/08/31 09:27:40;;;;;;;3.40;1.30;;;;;;;24.85;49.24;100892.34;5051340;28;20045;-59
2023/08/31 09:30:08;;;;;;;6.07;1.90;;;;;;;24.86;49.13;100887.75;5042586;28;20052;-59
2023/08/31 09:32:36;;;;;;;4.45;1.67;;;;;;;24.86;49.18;100887.75;5045209;28;20423;-59
2023/08/31 09:35:08;;;;;;;2.08;1.08;;;;;;;24.87;49.40;100889.44;5050741;28;20049;-59
2023/08/31 09:37:56;;;;;;;4.63;1.52;;;;;;;24.87;48.94;100893.03;5040241;28;20048;-57
2023/08/31 09:40:23;;;;;;;2.60;1.30;;;;;;;24.89;48.80;100900.97;5045621;28;20064;-56
2023/08/31 09:42:51;;;;;;;3.17;1.70;;;;;;;24.87;48.82;100900.28;5050098;28;20423;-56
2023/08/31 09:45:28;;;;;;;3.22;1.10;;;;;;;24.86;48.80;100893.19;5038670;28;20052;-56
2023/08/31 09:48:10;;;;;;;3.20;1.35;;;;;;;24.86;49.21;100899.44;5044692;28;20048;-56
2023/08/31 09:50:38;;;;;;;2.40;0.75;;;;;;;24.86;49.25;100893.19;5052627;28;20053;-56
2023/08/31 09:53:08;;;;;;;2.10;0.95;;;;;;;24.87;49.39;100892.16;5038987;28;20460;-56
2023/08/31 09:55:38;;;;;;;2.90;1.20;;;;;;;24.87;49.39;100890.31;5049728;28;20057;-56
2023/08/31 09:58:07;;;;;;;2.75;1.05;;;;;;;24.88;49.29;100896.56;5045616;28;20052;-56
2023/08/31 10:00:43;;;;;;;2.63;1.35;;;;;;;24.90;49.61;100889.97;5039626;28;20499;-56
2023/08/31 10:03:15;;;;;;;3.47;1.45;;;;;;;24.92;49.59;100887.94;5039110;28;20513;-56
2023/08/31 10:05:47;;;;;;;2.65;1.42;;;;;;;24.94;49.19;100889.63;5046614;28;20061;-56
2023/08/31 10:08:16;;;;;;;2.63;1.25;;;;;;;24.90;49.00;100889.13;5047828;28;20403;-59
2023/08/31 10:10:44;;;;;;;2.45;1.10;;;;;;;24.90;49.01;100887.25;5038481;28;20042;-59
2023/08/31 10:13:13;;;;;;;2.60;1.20;;;;;;;24.91;49.03;100888.09;5050053;28;20056;-59
2023/08/31 10:15:43;;;;;;;3.13;1.35;;;;;;;24.92;48.87;100893.38;5044224;28;20399;-59
2023/08/31 10:18:11;;;;;;;3.13;1.45;;;;;;;24.96;49.25;100883.03;5041339;28;20052;-56
2023/08/31 10:20:42;;;;;;;1.95;1.20;;;;;;;24.99;49.17;100887.25;5050956;28;20045;-56
2023/08/31 10:23:10;;;;;;;3.03;1.17;;;;;;;25.02;49.03;100881.53;5040932;28;20049;-56
2023/08/31 10:25:50;;;;;;;2.60;1.30;;;;;;;25.02;49.23;100876.94;5044481;28;20049;-56
2023/08/31 10:28:19;;;;;;;3.20;1.48;;;;;;;25.02;48.83;100881.53;5050370;28;20048;-56
2023/08/31 10:31:10;;;;;;;2.50;1.05;;;;;;;25.05;49.09;100882.03;5038528;28;20048;-56
2023/08/31 10:33:42;;;;;;;2.65;1.50;;;;;;;25.08;48.85;100883.56;5043483;28;20049;-56
2023/08/31 10:36:17;;;;;;;3.40;1.10;;;;;;;25.10;48.67;100882.41;5050137;28;20045;-56
2023/08/31 10:38:55;;;;;;;2.67;1.20;;;;;;;25.12;48.79;100885.81;5039098;28;20289;-56
2023/08/31 10:41:24;;;;;;;2.90;1.08;;;;;;;25.13;48.32;100889.34;5050652;28;20049;-56
2023/08/31 10:43:54;;;;;;;3.10;1.20;;;;;;;25.12;48.33;100885.81;5039883;28;20052;-56
2023/08/31 10:46:35;;;;;;;2.80;1.17;;;;;;;25.10;48.17;100881.56;5050107;28;20045;-56
2023/08/31 10:49:09;;;;;;;2.15;1.10;;;;;;;25.09;47.85;100899.66;5042849;28;20052;-56
2023/08/31 10:51:39;;;;;;;2.33;1.10;;;;;;;25.07;47.42;100888.09;5039397;28;20053;-56
2023/08/31 10:54:18;;;;;;;2.58;1.10;;;;;;;25.08;47.57;100884.41;5050144;28;20076;-56
2023/08/31 10:56:54;;;;;;;2.75;1.20;;;;;;;25.11;47.39;100885.94;5041733;28;20040;-56
2023/08/31 10:59:23;;;;;;;2.80;0.90;;;;;;;25.15;47.32;100887.31;5041150;28;20052;-59
2023/08/31 11:02:05;;;;;;;2.35;1.10;;;;;;;25.15;46.75;100888.16;5050062;28;20041;-59
2023/08/31 11:04:54;;;;;;;2.55;1.30;;;;;;;25.16;46.62;100883.59;5040847;28;20072;-59
2023/08/31 11:07:26;;;;;;;2.53;0.90;;;;;;;25.19;47.12;100887.81;5039670;28;20041;-59
2023/08/31 11:10:07;;;;;;;4.05;1.40;;;;;;;25.20;47.87;100889.50;5049661;28;20052;-57
2023/08/31 11:12:34;;;;;;;3.00;1.30;;;;;;;25.20;48.26;100889.50;5042127;28;20052;-57
2023/08/31 11:15:03;;;;;;;2.10;1.00;;;;;;;25.20;48.38;100881.38;5041506;28;20050;-57
2023/08/31 11:17:32;;;;;;;3.00;1.48;;;;;;;25.22;48.17;100879.34;5048275;28;20049;-58
2023/08/31 11:20:01;;;;;;;2.90;1.00;;;;;;;25.23;48.17;100870.22;5033668;28;20049;-59
2023/08/31 11:22:29;;;;;;;2.55;1.15;;;;;;;25.24;48.33;100871.88;5042116;28;20045;-60
2023/08/31 11:24:57;;;;;;;3.30;1.42;;;;;;;25.27;48.29;100871.56;5040829;28;20072;-60
2023/08/31 11:27:25;;;;;;;3.03;1.17;;;;;;;25.30;48.41;100865.81;5049305;28;20060;-60
2023/08/31 11:29:54;;;;;;;2.53;1.10;;;;;;;25.30;48.28;100863.94;5038881;28;20068;-57
2023/08/31 11:32:25;;;;;;;2.78;1.10;;;;;;;25.33;48.06;100863.59;5043929;28;20053;-57
2023/08/31 11:34:52;;;;;;;5.40;1.58;;;;;;;25.33;48.08;100860.06;5047463;28;20060;-56